Mulgrave, Canada
Current Conditions -  °F | °C
As of 11:00 AM on Tuesday 21 Oct 2014 (Local Time) from CYPD Reporting Station
Clear Clear  
Wind Chill: 50°   Ceiling: Unl
Heat Index: 50°   Visibility: 9mi
Dew Point: 30°   Wind: 10mph
Humidity: 47%   Direction: 270°W
Pressure: 30.13"   Gusts: 18mph
Location:  45.62°N, 61.4°W
Report Text: CYPD 211400Z AUTO 27009G16KT 9SM CLR 10/M01 A3013 RMK SLP207
Loading
Personal Weather Stations






























Interactive Weather Map
Tropical Storm Tracking
New forecast layout! Learn more

10-Day Weather Forecast

Advertisements
Track Severe Weather on mobile